createdAt,value
2023-02-15T00:01:36.689Z,5.20
2023-02-15T00:04:04.712Z,5.65
2023-02-15T00:06:32.075Z,6.28
2023-02-15T00:08:58.978Z,4.90
2023-02-15T00:11:41.189Z,5.28
2023-02-15T00:14:49.896Z,4.72
2023-02-15T00:17:16.702Z,4.70
2023-02-15T00:19:43.622Z,5.03
2023-02-15T00:22:10.535Z,4.65
2023-02-15T00:24:37.261Z,4.95
2023-02-15T00:27:04.171Z,4.70
2023-02-15T00:29:31.277Z,5.40
2023-02-15T00:31:58.147Z,4.30
2023-02-15T00:34:28.376Z,4.95
2023-02-15T00:36:55.399Z,4.78
2023-02-15T00:39:22.486Z,4.65
2023-02-15T00:41:49.325Z,5.35
2023-02-15T00:44:16.402Z,4.55
2023-02-15T00:46:43.397Z,4.75
2023-02-15T00:49:11.263Z,4.93
2023-02-15T00:51:38.231Z,3.97
2023-02-15T00:54:04.993Z,4.57
2023-02-15T00:56:31.980Z,4.47
2023-02-15T00:58:58.692Z,5.10
2023-02-15T01:01:26.783Z,5.15
2023-02-15T01:03:53.788Z,4.70
2023-02-15T01:06:20.602Z,4.22
2023-02-15T01:08:47.649Z,4.78
2023-02-15T01:11:16.369Z,5.00
2023-02-15T01:13:43.203Z,4.93
2023-02-15T01:16:10.043Z,4.35
2023-02-15T01:18:36.892Z,5.00
2023-02-15T01:21:14.869Z,5.40
2023-02-15T01:23:42.967Z,3.92
2023-02-15T01:26:10.574Z,4.57
2023-02-15T01:28:37.429Z,4.93
2023-02-15T01:31:15.145Z,4.90
2023-02-15T01:33:44.854Z,4.25
2023-02-15T01:36:11.689Z,4.18
2023-02-15T01:38:41.006Z,4.60
2023-02-15T01:41:27.419Z,4.15
2023-02-15T01:43:59.734Z,3.97
2023-02-15T01:46:41.242Z,3.90
2023-02-15T01:49:12.677Z,4.30
2023-02-15T01:51:39.491Z,4.35
2023-02-15T01:54:27.324Z,4.50
2023-02-15T01:56:54.400Z,4.53
2023-02-15T01:59:22.801Z,4.72
2023-02-15T02:01:50.176Z,5.10
2023-02-15T02:04:21.522Z,4.38
2023-02-15T02:06:48.762Z,4.45
2023-02-15T02:09:15.687Z,4.88
2023-02-15T02:11:42.505Z,4.57
2023-02-15T02:14:09.724Z,5.03
2023-02-15T02:16:39.975Z,4.78
2023-02-15T02:19:25.236Z,5.45
2023-02-15T02:22:17.139Z,4.93
2023-02-15T02:25:05.842Z,4.97
2023-02-15T02:27:47.129Z,5.10
2023-02-15T02:33:03.358Z,4.90
2023-02-15T02:35:37.770Z,5.28
2023-02-15T02:38:10.397Z,4.22
2023-02-15T02:40:55.136Z,4.50
2023-02-15T02:43:34.786Z,5.38
2023-02-15T02:46:06.886Z,4.45
2023-02-15T02:48:33.985Z,4.22
2023-02-15T02:51:00.824Z,5.38
2023-02-15T02:53:28.253Z,4.57
2023-02-15T02:56:01.020Z,4.55
2023-02-15T02:58:32.617Z,6.00
2023-02-15T03:01:02.698Z,5.47
2023-02-15T03:03:31.481Z,6.25
2023-02-15T03:06:01.567Z,5.25
2023-02-15T03:08:35.916Z,5.47
2023-02-15T03:11:03.394Z,5.40
2023-02-15T03:13:30.351Z,5.07
2023-02-15T03:16:16.005Z,5.22
2023-02-15T03:18:53.642Z,5.57
2023-02-15T03:21:26.992Z,6.82
2023-02-15T03:23:55.611Z,6.05
2023-02-15T03:26:22.750Z,5.20
2023-02-15T03:28:52.048Z,5.88
2023-02-15T03:31:19.023Z,5.80
2023-02-15T03:33:54.737Z,5.65
2023-02-15T03:36:30.231Z,5.65
2023-02-15T03:39:05.361Z,5.72
2023-02-15T03:41:35.369Z,5.60
2023-02-15T03:44:09.660Z,5.60
2023-02-15T03:46:53.574Z,5.68
2023-02-15T03:49:40.887Z,6.28
2023-02-15T03:52:08.120Z,5.75
2023-02-15T03:54:44.882Z,6.32
2023-02-15T03:57:44.973Z,6.35
2023-02-15T04:00:44.035Z,5.03
2023-02-15T04:03:16.930Z,5.32
2023-02-15T04:05:44.736Z,5.82
2023-02-15T04:08:11.802Z,5.63
2023-02-15T04:10:53.496Z,6.07
2023-02-15T04:13:24.625Z,5.47
2023-02-15T04:16:05.386Z,6.82
2023-02-15T04:19:01.813Z,6.32
2023-02-15T04:21:48.544Z,5.70
2023-02-15T04:24:34.342Z,5.85
2023-02-15T04:27:01.404Z,5.70
2023-02-15T04:29:28.498Z,5.88
2023-02-15T04:31:56.478Z,6.22
2023-02-15T04:34:23.527Z,7.05
2023-02-15T04:36:51.268Z,7.03
2023-02-15T04:39:18.527Z,7.03
2023-02-15T04:41:45.631Z,6.47
2023-02-15T04:44:12.475Z,7.05
2023-02-15T04:46:39.378Z,7.22
2023-02-15T04:49:06.661Z,6.35
2023-02-15T04:51:34.075Z,6.72
2023-02-15T04:54:00.894Z,7.25
2023-02-15T04:56:27.872Z,6.90
2023-02-15T04:58:55.653Z,6.38
2023-02-15T05:01:22.443Z,6.80
2023-02-15T05:03:49.265Z,7.70
2023-02-15T05:06:16.086Z,6.38
2023-02-15T05:08:43.121Z,6.50
2023-02-15T05:11:10.140Z,6.97
2023-02-15T05:13:37.597Z,6.75
2023-02-15T05:16:04.552Z,6.32
2023-02-15T05:18:31.635Z,7.03
2023-02-15T05:20:58.559Z,7.75
2023-02-15T05:23:25.375Z,6.50
2023-02-15T05:26:10.812Z,7.10
2023-02-15T05:28:38.328Z,6.53
2023-02-15T05:31:12.969Z,6.93
2023-02-15T05:33:40.178Z,7.00
2023-02-15T05:36:07.401Z,8.23
2023-02-15T05:38:35.170Z,8.15
2023-02-15T05:41:01.945Z,6.88
2023-02-15T05:43:28.729Z,7.47
2023-02-15T05:45:55.745Z,7.35
2023-02-15T05:48:24.476Z,7.20
2023-02-15T05:51:09.165Z,7.20
2023-02-15T05:53:38.172Z,7.68
2023-02-15T05:56:05.589Z,8.50
2023-02-15T05:58:34.609Z,8.98
2023-02-15T06:01:08.000Z,7.82
2023-02-15T06:03:34.934Z,7.35
2023-02-15T06:06:02.113Z,8.02
2023-02-15T06:08:29.112Z,7.20
2023-02-15T06:10:55.972Z,7.40
2023-02-15T06:13:23.369Z,7.25
2023-02-15T06:15:50.209Z,7.28
2023-02-15T06:18:17.105Z,7.78
2023-02-15T06:20:46.049Z,7.10
2023-02-15T06:23:13.664Z,6.45
2023-02-15T06:25:40.881Z,7.32
2023-02-15T06:28:07.735Z,6.82
2023-02-15T06:30:35.523Z,6.35
2023-02-15T06:33:02.428Z,7.57
2023-02-15T06:35:29.347Z,7.30
2023-02-15T06:37:56.607Z,7.57
2023-02-15T06:40:24.117Z,5.90
2023-02-15T06:42:51.146Z,6.28
2023-02-15T06:45:18.123Z,6.00
2023-02-15T06:47:44.924Z,6.30
2023-02-15T06:50:12.177Z,6.35
2023-02-15T06:52:39.021Z,6.43
2023-02-15T06:55:06.448Z,6.63
2023-02-15T06:57:34.456Z,6.43
2023-02-15T07:00:01.336Z,6.90
2023-02-15T07:02:28.163Z,6.32
2023-02-15T07:04:54.967Z,5.80
2023-02-15T07:07:21.763Z,5.88
2023-02-15T07:09:48.819Z,5.72
2023-02-15T07:12:51.328Z,5.88
2023-02-15T07:15:22.246Z,6.25
2023-02-15T07:17:50.333Z,6.47
2023-02-15T07:20:21.554Z,6.20
2023-02-15T07:22:48.985Z,5.90
2023-02-15T07:25:15.924Z,5.72
2023-02-15T07:27:46.064Z,6.53
2023-02-15T07:30:14.699Z,5.80
2023-02-15T07:33:04.747Z,5.93
2023-02-15T07:35:32.061Z,5.88
2023-02-15T07:37:59.291Z,6.00
2023-02-15T07:40:26.991Z,6.00
2023-02-15T07:42:55.815Z,6.00
2023-02-15T07:45:22.934Z,5.93
2023-02-15T07:47:49.698Z,6.68
2023-02-15T07:50:16.620Z,6.45
2023-02-15T07:52:43.575Z,6.05
2023-02-15T07:55:13.759Z,7.28
2023-02-15T07:57:49.908Z,7.28
2023-02-15T08:00:17.955Z,5.85
2023-02-15T08:03:15.388Z,6.22
2023-02-15T08:05:43.454Z,6.55
2023-02-15T08:08:30.704Z,6.65
2023-02-15T08:11:22.153Z,6.03
2023-02-15T08:13:56.652Z,5.53
2023-02-15T08:16:23.502Z,5.93
2023-02-15T08:18:50.334Z,5.88
2023-02-15T08:21:17.338Z,5.40
2023-02-15T08:23:44.284Z,5.72
2023-02-15T08:26:11.107Z,6.53
2023-02-15T08:28:39.798Z,5.88
2023-02-15T08:31:11.531Z,7.35
2023-02-15T08:33:39.174Z,6.45
2023-02-15T08:36:07.333Z,5.88
2023-02-15T08:38:34.297Z,5.90
2023-02-15T08:41:40.221Z,5.68
2023-02-15T08:44:08.296Z,5.15
2023-02-15T08:46:36.838Z,4.72
2023-02-15T08:49:03.879Z,5.25
2023-02-15T08:51:35.186Z,5.93
2023-02-15T08:54:05.283Z,7.00
2023-02-15T08:56:55.611Z,6.38
2023-02-15T08:59:23.707Z,6.07
2023-02-15T09:01:52.086Z,6.65
2023-02-15T09:04:19.110Z,6.47
2023-02-15T09:06:48.899Z,6.65
2023-02-15T09:09:17.315Z,7.80
2023-02-15T09:11:45.167Z,8.05
2023-02-15T09:14:17.044Z,9.93
2023-02-15T09:16:49.746Z,9.32
2023-02-15T09:19:18.441Z,9.95
2023-02-15T09:21:45.480Z,11.65
2023-02-15T09:24:13.856Z,9.20
2023-02-15T09:26:42.731Z,9.00
2023-02-15T09:29:13.741Z,10.23
2023-02-15T09:31:45.290Z,9.90
2023-02-15T09:34:13.286Z,10.70
2023-02-15T09:36:40.616Z,8.77
2023-02-15T09:39:10.910Z,10.90
2023-02-15T09:41:44.680Z,11.05
2023-02-15T09:44:26.555Z,10.00
2023-02-15T09:47:08.732Z,10.38
2023-02-15T09:49:48.590Z,8.18
2023-02-15T09:52:50.820Z,8.32
2023-02-15T09:55:42.477Z,8.98
2023-02-15T09:58:35.062Z,9.20
2023-02-15T10:01:11.113Z,10.02
2023-02-15T10:04:16.471Z,8.77
2023-02-15T10:07:02.711Z,7.93
2023-02-15T10:10:10.502Z,7.30
2023-02-15T10:13:01.049Z,6.72
2023-02-15T10:15:43.035Z,7.45
2023-02-15T10:18:30.957Z,8.93
2023-02-15T10:21:22.366Z,8.18
2023-02-15T10:24:01.581Z,7.75
2023-02-15T10:26:32.563Z,8.13
2023-02-15T10:29:07.579Z,9.05
2023-02-15T10:31:43.695Z,8.48
2023-02-15T10:34:40.508Z,8.30
2023-02-15T10:37:33.630Z,7.20
2023-02-15T10:40:03.596Z,6.80
2023-02-15T10:42:57.286Z,6.53
2023-02-15T10:45:42.847Z,7.85
2023-02-15T10:48:15.459Z,7.93
2023-02-15T10:50:49.601Z,7.72
2023-02-15T10:53:31.415Z,6.72
2023-02-15T10:56:08.855Z,6.30
2023-02-15T10:58:48.608Z,7.43
2023-02-15T11:01:24.494Z,8.45
2023-02-15T11:04:11.552Z,7.60
2023-02-15T11:06:40.227Z,7.95
2023-02-15T11:09:14.155Z,7.78
2023-02-15T11:11:43.325Z,7.65
2023-02-15T11:14:41.981Z,7.22
2023-02-15T11:17:12.509Z,7.60
2023-02-15T11:19:43.259Z,6.93
2023-02-15T11:22:11.095Z,7.50
2023-02-15T11:24:42.191Z,7.90
2023-02-15T11:27:22.247Z,8.23
2023-02-15T11:29:59.637Z,9.50
2023-02-15T11:32:33.960Z,7.03
2023-02-15T11:35:12.838Z,6.25
2023-02-15T11:37:47.937Z,5.97
2023-02-15T11:40:29.542Z,5.82
2023-02-15T11:43:07.732Z,6.35
2023-02-15T11:45:37.643Z,6.00
2023-02-15T11:48:10.590Z,5.18
2023-02-15T11:50:37.529Z,5.47
2023-02-15T11:53:28.585Z,4.60
2023-02-15T11:55:55.504Z,5.60
2023-02-15T11:58:35.443Z,4.78
2023-02-15T12:01:13.065Z,5.97
2023-02-15T12:03:47.217Z,5.72
2023-02-15T12:06:29.078Z,4.88
2023-02-15T12:09:04.026Z,4.97
2023-02-15T12:11:36.754Z,4.72
2023-02-15T12:14:08.305Z,4.85
2023-02-15T12:17:01.508Z,4.35
2023-02-15T12:19:38.629Z,3.75
2023-02-15T12:22:05.760Z,3.80
2023-02-15T12:24:35.673Z,4.75
2023-02-15T12:27:05.171Z,5.80
2023-02-15T12:29:53.128Z,4.85
2023-02-15T12:32:27.899Z,5.70
2023-02-15T12:35:01.476Z,5.18
2023-02-15T12:37:30.004Z,4.40
2023-02-15T12:40:00.684Z,4.72
2023-02-15T12:42:30.152Z,3.92
2023-02-15T12:45:05.234Z,3.88
2023-02-15T12:47:33.465Z,3.53
2023-02-15T12:50:18.061Z,3.78
2023-02-15T12:52:49.622Z,3.42
2023-02-15T12:55:23.526Z,3.13
2023-02-15T12:57:51.551Z,3.70
2023-02-15T13:00:21.893Z,4.13
2023-02-15T13:02:50.859Z,4.47
2023-02-15T13:05:19.532Z,4.47
2023-02-15T13:07:55.076Z,3.80
2023-02-15T13:10:25.555Z,3.67
2023-02-15T13:12:55.089Z,4.78
2023-02-15T13:15:27.032Z,3.63
2023-02-15T13:17:53.831Z,3.13
2023-02-15T13:20:26.841Z,2.97
2023-02-15T13:22:58.858Z,2.88
2023-02-15T13:25:26.557Z,2.50
2023-02-15T13:27:55.415Z,2.40
2023-02-15T13:30:27.384Z,2.80
2023-02-15T13:32:57.294Z,2.38
2023-02-15T13:35:24.057Z,2.17
2023-02-15T13:38:14.120Z,2.30
2023-02-15T13:40:51.233Z,2.47
2023-02-15T13:43:27.198Z,2.70
2023-02-15T13:45:57.006Z,2.47
2023-02-15T13:48:51.343Z,2.30
2023-02-15T13:52:00.577Z,2.10
2023-02-15T13:54:42.297Z,1.92
2023-02-15T13:57:40.157Z,2.55
2023-02-15T14:00:25.031Z,2.58
2023-02-15T14:03:30.869Z,2.67
2023-02-15T14:06:22.380Z,2.38
2023-02-15T14:08:52.833Z,2.20
2023-02-15T14:11:33.839Z,1.90
2023-02-15T14:14:16.798Z,2.42
2023-02-15T14:19:59.363Z,2.15
2023-02-15T14:22:26.377Z,2.13
2023-02-15T14:25:16.944Z,2.40
2023-02-15T14:28:14.688Z,2.10
2023-02-15T14:30:44.077Z,1.80
2023-02-15T14:33:35.870Z,2.28
2023-02-15T14:36:03.963Z,2.72
2023-02-15T14:38:33.684Z,3.25
2023-02-15T14:41:15.608Z,2.65
2023-02-15T14:44:04.238Z,2.55
2023-02-15T14:46:46.155Z,2.10
2023-02-15T14:49:34.229Z,2.25
2023-02-15T14:52:06.303Z,1.88
2023-02-15T14:54:35.893Z,1.73
2023-02-15T14:57:03.050Z,1.58
2023-02-15T14:59:40.043Z,1.55
2023-02-15T15:02:09.889Z,2.35
2023-02-15T15:04:48.125Z,1.92
2023-02-15T15:07:37.095Z,1.77
2023-02-15T15:10:17.249Z,2.13
2023-02-15T15:12:56.501Z,2.35
2023-02-15T15:15:32.334Z,2.30
2023-02-15T15:17:59.178Z,2.00
2023-02-15T15:20:50.943Z,2.03
2023-02-15T15:23:21.198Z,1.97
2023-02-15T15:25:57.637Z,2.08
2023-02-15T15:28:36.694Z,2.15
2023-02-15T15:31:15.629Z,2.85
2023-02-15T15:33:47.780Z,2.10
2023-02-15T15:36:26.425Z,1.60
2023-02-15T15:39:30.548Z,2.03
2023-02-15T15:42:16.892Z,1.70
2023-02-15T15:45:24.741Z,1.73
2023-02-15T15:48:07.106Z,1.60
2023-02-15T15:50:34.569Z,1.92
2023-02-15T15:53:02.068Z,1.60
2023-02-15T15:55:32.722Z,1.50
2023-02-15T15:58:04.684Z,1.45
2023-02-15T16:00:36.111Z,1.77
2023-02-15T16:03:02.923Z,2.17
2023-02-15T16:05:37.314Z,2.08
2023-02-15T16:08:04.152Z,1.98
2023-02-15T16:10:33.087Z,1.30
2023-02-15T16:12:59.851Z,1.42
2023-02-15T16:15:38.024Z,1.67
2023-02-15T16:18:04.887Z,1.33
2023-02-15T16:20:36.164Z,1.35
2023-02-15T16:23:17.462Z,1.20
2023-02-15T16:25:53.936Z,1.90
2023-02-15T16:28:21.203Z,1.50
2023-02-15T16:31:08.123Z,1.55
2023-02-15T16:33:39.402Z,1.98
2023-02-15T16:36:08.802Z,2.15
2023-02-15T16:38:35.597Z,1.63
2023-02-15T16:41:02.650Z,1.70
2023-02-15T16:43:30.368Z,1.92
2023-02-15T16:46:07.212Z,1.75
2023-02-15T16:48:34.888Z,1.80
2023-02-15T16:51:01.979Z,2.20
2023-02-15T16:53:29.616Z,2.15
2023-02-15T16:56:00.247Z,1.58
2023-02-15T16:58:37.636Z,1.98
2023-02-15T17:01:05.016Z,1.60
2023-02-15T17:03:32.278Z,1.65
2023-02-15T17:06:00.377Z,1.77
2023-02-15T17:08:31.640Z,1.55
2023-02-15T17:11:10.381Z,1.70
2023-02-15T17:13:37.133Z,1.70
2023-02-15T17:16:04.304Z,1.98
2023-02-15T17:18:59.305Z,2.17
2023-02-15T17:21:29.335Z,1.67
2023-02-15T17:24:01.297Z,1.75
2023-02-15T17:26:30.090Z,1.65
2023-02-15T17:29:22.678Z,1.50
2023-02-15T17:31:51.009Z,1.75
2023-02-15T17:34:41.843Z,1.75
2023-02-15T17:37:25.820Z,1.42
2023-02-15T17:39:52.659Z,1.75
2023-02-15T17:42:19.384Z,1.30
2023-02-15T17:44:46.781Z,1.65
2023-02-15T17:47:18.265Z,1.60
2023-02-15T17:49:45.214Z,1.50
2023-02-15T17:52:14.675Z,1.70
2023-02-15T17:55:00.320Z,1.70
2023-02-15T17:57:28.204Z,1.73
2023-02-15T18:00:13.232Z,2.33
2023-02-15T18:02:58.740Z,2.05
2023-02-15T18:05:43.933Z,2.10
2023-02-15T18:08:40.175Z,1.50
2023-02-15T18:11:27.008Z,1.83
2023-02-15T18:13:53.976Z,1.98
2023-02-15T18:16:23.300Z,2.45
2023-02-15T18:18:50.685Z,1.83
2023-02-15T18:21:17.703Z,1.80
2023-02-15T18:23:45.216Z,2.00
2023-02-15T18:26:17.516Z,2.15
2023-02-15T18:28:44.360Z,2.45
2023-02-15T18:31:11.642Z,2.20
2023-02-15T18:33:47.841Z,2.20
2023-02-15T18:36:18.400Z,1.80
2023-02-15T18:38:45.215Z,2.70
2023-02-15T18:41:18.952Z,2.13
2023-02-15T18:43:46.190Z,2.40
2023-02-15T18:46:13.674Z,2.38
2023-02-15T18:48:41.079Z,2.30
2023-02-15T18:51:17.369Z,2.67
2023-02-15T18:53:45.179Z,2.28
2023-02-15T18:56:19.339Z,2.03
2023-02-15T18:58:49.411Z,2.13
2023-02-15T19:01:21.177Z,2.35
2023-02-15T19:03:49.216Z,1.70
2023-02-15T19:06:17.779Z,2.10
2023-02-15T19:08:45.847Z,2.25
2023-02-15T19:11:28.491Z,2.40
2023-02-15T19:13:56.311Z,2.50
2023-02-15T19:16:35.648Z,3.42
2023-02-15T19:19:02.663Z,2.45
2023-02-15T19:21:30.993Z,3.15
2023-02-15T19:24:07.178Z,3.58
2023-02-15T19:26:44.894Z,3.08
2023-02-15T19:29:16.792Z,3.30
2023-02-15T19:31:43.885Z,2.80
2023-02-15T19:34:15.732Z,3.70
2023-02-15T19:36:47.669Z,3.70
2023-02-15T19:39:27.178Z,2.85
2023-02-15T19:41:57.316Z,3.10
2023-02-15T19:44:24.244Z,3.13
2023-02-15T19:46:51.941Z,2.63
2023-02-15T19:49:18.949Z,3.72
2023-02-15T19:51:46.143Z,3.38
2023-02-15T19:54:21.124Z,2.97
2023-02-15T19:56:48.429Z,3.58
2023-02-15T19:59:35.189Z,3.78
2023-02-15T20:02:02.327Z,4.20
2023-02-15T20:04:29.569Z,5.18
2023-02-15T20:06:59.372Z,4.90
2023-02-15T20:09:29.668Z,5.50
2023-02-15T20:11:59.596Z,4.53
2023-02-15T20:14:27.338Z,5.20
2023-02-15T20:16:55.147Z,4.50
2023-02-15T20:19:23.451Z,5.05
2023-02-15T20:21:58.532Z,4.68
2023-02-15T20:24:26.254Z,5.07
2023-02-15T20:26:54.154Z,4.30
2023-02-15T20:29:21.541Z,4.90
2023-02-15T20:31:49.158Z,4.50
2023-02-15T20:34:16.827Z,4.22
2023-02-15T20:36:44.366Z,4.35
2023-02-15T20:39:17.817Z,5.43
2023-02-15T20:41:47.960Z,4.43
2023-02-15T20:44:24.148Z,4.00
2023-02-15T20:46:53.458Z,3.83
2023-02-15T20:49:22.984Z,4.80
2023-02-15T20:51:53.063Z,4.78
2023-02-15T20:54:22.596Z,4.90
2023-02-15T20:56:51.041Z,5.15
2023-02-15T20:59:29.244Z,4.43
2023-02-15T21:02:00.313Z,7.13
2023-02-15T21:04:32.062Z,6.25
2023-02-15T21:07:00.846Z,5.15
2023-02-15T21:09:29.691Z,4.80
2023-02-15T21:11:59.424Z,5.00
2023-02-15T21:14:30.811Z,4.68
2023-02-15T21:17:01.289Z,5.07
2023-02-15T21:19:28.658Z,4.63
2023-02-15T21:21:57.704Z,4.97
2023-02-15T21:24:33.809Z,4.35
2023-02-15T21:27:03.096Z,5.72
2023-02-15T21:29:31.319Z,4.97
2023-02-15T21:31:59.153Z,5.07
2023-02-15T21:34:30.311Z,4.63
2023-02-15T21:36:57.572Z,5.28
2023-02-15T21:39:26.234Z,3.72
2023-02-15T21:42:12.820Z,4.63
2023-02-15T21:45:00.516Z,5.85
2023-02-15T21:47:48.221Z,3.92
2023-02-15T21:50:38.008Z,5.13
2023-02-15T21:53:06.350Z,5.18
2023-02-15T21:55:33.294Z,5.35
2023-02-15T21:58:00.555Z,4.88
2023-02-15T22:00:27.786Z,5.15
2023-02-15T22:02:56.057Z,6.05
2023-02-15T22:05:30.648Z,5.43
2023-02-15T22:07:57.582Z,5.18
2023-02-15T22:10:26.860Z,4.47
2023-02-15T22:12:53.578Z,5.40
2023-02-15T22:15:21.765Z,5.53
2023-02-15T22:17:49.009Z,4.75
2023-02-15T22:20:20.747Z,4.35
2023-02-15T22:22:47.942Z,3.70
2023-02-15T22:25:16.038Z,3.90
2023-02-15T22:27:46.210Z,4.63
2023-02-15T22:30:20.542Z,4.15
2023-02-15T22:32:47.524Z,4.57
2023-02-15T22:35:34.769Z,4.97
2023-02-15T22:38:01.566Z,4.07
2023-02-15T22:40:30.304Z,5.20
2023-02-15T22:42:57.522Z,5.22
2023-02-15T22:45:24.693Z,5.70
2023-02-15T22:47:58.330Z,5.47
2023-02-15T22:50:26.989Z,4.28
2023-02-15T22:52:54.100Z,4.22
2023-02-15T22:55:23.137Z,4.43
2023-02-15T22:57:54.266Z,4.63
2023-02-15T23:00:22.929Z,4.30
2023-02-15T23:02:49.668Z,4.45
2023-02-15T23:05:18.183Z,5.03
2023-02-15T23:07:45.322Z,6.05
2023-02-15T23:10:21.346Z,4.50
2023-02-15T23:13:17.456Z,3.92
2023-02-15T23:15:45.485Z,5.07
2023-02-15T23:18:16.994Z,5.32
2023-02-15T23:20:44.692Z,5.00
2023-02-15T23:23:11.907Z,5.35
2023-02-15T23:25:38.980Z,5.18
2023-02-15T23:28:06.340Z,4.75
2023-02-15T23:30:33.250Z,3.90
2023-02-15T23:32:59.969Z,3.85
2023-02-15T23:35:26.763Z,3.47
2023-02-15T23:37:53.435Z,3.40
2023-02-15T23:40:39.544Z,3.55
2023-02-15T23:43:07.124Z,3.35
2023-02-15T23:45:37.479Z,3.85
2023-02-15T23:48:28.174Z,3.22
2023-02-15T23:50:55.041Z,3.42
2023-02-15T23:53:24.814Z,3.58
2023-02-15T23:55:51.602Z,3.75
2023-02-15T23:58:20.297Z,4.55
